sensor_id;sensor_type;location;lat;lon;timestamp;temperature;humidity
21823;DHT22;11074;48.596;9.238;2023-01-15T00:01:23;10.70;99.90
21823;DHT22;11074;48.596;9.238;2023-01-15T00:03:52;10.70;99.90
21823;DHT22;11074;48.596;9.238;2023-01-15T00:06:20;10.70;99.90
21823;DHT22;11074;48.596;9.238;2023-01-15T00:08:48;10.70;99.90
21823;DHT22;11074;48.596;9.238;2023-01-15T00:11:14;10.70;99.90
21823;DHT22;11074;48.596;9.238;2023-01-15T00:13:40;10.80;99.90
21823;DHT22;11074;48.596;9.238;2023-01-15T00:16:16;10.80;99.90
21823;DHT22;11074;48.596;9.238;2023-01-15T00:18:50;10.80;99.90
21823;DHT22;11074;48.596;9.238;2023-01-15T00:21:18;10.80;99.90
21823;DHT22;11074;48.596;9.238;2023-01-15T00:23:45;10.80;99.90
21823;DHT22;11074;48.596;9.238;2023-01-15T00:26:40;10.80;99.90
21823;DHT22;11074;48.596;9.238;2023-01-15T00:29:25;10.80;99.90
21823;DHT22;11074;48.596;9.238;2023-01-15T00:31:58;10.80;99.90
21823;DHT22;11074;48.596;9.238;2023-01-15T00:34:26;10.80;99.90
21823;DHT22;11074;48.596;9.238;2023-01-15T00:36:52;10.80;99.90
21823;DHT22;11074;48.596;9.238;2023-01-15T00:39:18;10.90;99.90
21823;DHT22;11074;48.596;9.238;2023-01-15T00:41:44;10.90;99.90
21823;DHT22;11074;48.596;9.238;2023-01-15T00:44:10;11.00;99.90
21823;DHT22;11074;48.596;9.238;2023-01-15T00:46:35;11.00;99.90
21823;DHT22;11074;48.596;9.238;2023-01-15T00:49:02;11.10;99.90
21823;DHT22;11074;48.596;9.238;2023-01-15T00:51:28;11.10;99.90
21823;DHT22;11074;48.596;9.238;2023-01-15T00:53:54;11.10;99.90
21823;DHT22;11074;48.596;9.238;2023-01-15T00:56:20;11.20;99.90
21823;DHT22;11074;48.596;9.238;2023-01-15T00:58:46;11.20;99.90
21823;DHT22;11074;48.596;9.238;2023-01-15T01:01:12;11.20;99.90
21823;DHT22;11074;48.596;9.238;2023-01-15T01:03:38;11.20;99.90
21823;DHT22;11074;48.596;9.238;2023-01-15T01:06:04;11.30;99.90
21823;DHT22;11074;48.596;9.238;2023-01-15T01:08:30;11.30;99.90
21823;DHT22;11074;48.596;9.238;2023-01-15T01:11:07;11.30;99.90
21823;DHT22;11074;48.596;9.238;2023-01-15T01:13:35;11.30;99.90
21823;DHT22;11074;48.596;9.238;2023-01-15T01:16:03;11.20;99.90
21823;DHT22;11074;48.596;9.238;2023-01-15T01:18:45;11.20;99.90
21823;DHT22;11074;48.596;9.238;2023-01-15T01:21:10;11.10;99.90
21823;DHT22;11074;48.596;9.238;2023-01-15T01:23:36;11.10;99.90
21823;DHT22;11074;48.596;9.238;2023-01-15T01:26:02;11.10;99.90
21823;DHT22;11074;48.596;9.238;2023-01-15T01:28:27;11.00;99.90
21823;DHT22;11074;48.596;9.238;2023-01-15T01:30:53;11.00;99.90
21823;DHT22;11074;48.596;9.238;2023-01-15T01:33:18;10.90;99.90
21823;DHT22;11074;48.596;9.238;2023-01-15T01:35:48;10.90;99.90
21823;DHT22;11074;48.596;9.238;2023-01-15T01:38:14;10.90;99.90
21823;DHT22;11074;48.596;9.238;2023-01-15T01:40:41;10.90;99.90
21823;DHT22;11074;48.596;9.238;2023-01-15T01:43:27;10.90;99.90
21823;DHT22;11074;48.596;9.238;2023-01-15T01:45:54;10.90;99.90
21823;DHT22;11074;48.596;9.238;2023-01-15T01:48:24;11.00;99.90
21823;DHT22;11074;48.596;9.238;2023-01-15T01:50:56;11.00;99.90
21823;DHT22;11074;48.596;9.238;2023-01-15T01:53:28;11.00;99.90
21823;DHT22;11074;48.596;9.238;2023-01-15T01:55:57;11.00;99.90
21823;DHT22;11074;48.596;9.238;2023-01-15T01:58:27;11.00;99.90
21823;DHT22;11074;48.596;9.238;2023-01-15T02:00:55;11.00;99.90
21823;DHT22;11074;48.596;9.238;2023-01-15T02:03:25;11.00;99.90
21823;DHT22;11074;48.596;9.238;2023-01-15T02:05:58;11.10;99.90
21823;DHT22;11074;48.596;9.238;2023-01-15T02:08:27;11.10;99.90
21823;DHT22;11074;48.596;9.238;2023-01-15T02:10:54;11.10;99.90
21823;DHT22;11074;48.596;9.238;2023-01-15T02:13:35;11.10;99.90
21823;DHT22;11074;48.596;9.238;2023-01-15T02:16:13;11.10;99.90
21823;DHT22;11074;48.596;9.238;2023-01-15T02:19:13;11.10;99.90
21823;DHT22;11074;48.596;9.238;2023-01-15T02:21:46;11.10;99.90
21823;DHT22;11074;48.596;9.238;2023-01-15T02:24:31;11.10;99.90
21823;DHT22;11074;48.596;9.238;2023-01-15T02:27:37;11.10;99.90
21823;DHT22;11074;48.596;9.238;2023-01-15T02:30:17;11.20;99.90
21823;DHT22;11074;48.596;9.238;2023-01-15T02:32:52;11.20;99.90
21823;DHT22;11074;48.596;9.238;2023-01-15T02:35:35;11.10;99.90
21823;DHT22;11074;48.596;9.238;2023-01-15T02:38:08;11.20;99.90
21823;DHT22;11074;48.596;9.238;2023-01-15T02:40:38;11.20;99.90
21823;DHT22;11074;48.596;9.238;2023-01-15T02:43:07;11.20;99.90
21823;DHT22;11074;48.596;9.238;2023-01-15T02:45:40;11.20;99.90
21823;DHT22;11074;48.596;9.238;2023-01-15T02:48:12;11.20;99.90
21823;DHT22;11074;48.596;9.238;2023-01-15T02:50:44;11.20;99.90
21823;DHT22;11074;48.596;9.238;2023-01-15T02:53:21;11.30;99.90
21823;DHT22;11074;48.596;9.238;2023-01-15T02:55:53;11.30;99.90
21823;DHT22;11074;48.596;9.238;2023-01-15T02:58:29;11.30;99.90
21823;DHT22;11074;48.596;9.238;2023-01-15T03:00:59;11.30;99.90
21823;DHT22;11074;48.596;9.238;2023-01-15T03:03:50;11.30;99.90
21823;DHT22;11074;48.596;9.238;2023-01-15T03:07:26;11.30;99.90
21823;DHT22;11074;48.596;9.238;2023-01-15T03:09:49;11.30;99.90
21823;DHT22;11074;48.596;9.238;2023-01-15T03:15:34;11.40;99.90
21823;DHT22;11074;48.596;9.238;2023-01-15T03:18:26;11.40;99.90
21823;DHT22;11074;48.596;9.238;2023-01-15T03:20:59;11.40;99.90
21823;DHT22;11074;48.596;9.238;2023-01-15T03:23:30;11.40;99.90
21823;DHT22;11074;48.596;9.238;2023-01-15T03:26:02;11.40;99.90
21823;DHT22;11074;48.596;9.238;2023-01-15T03:28:32;11.40;99.90
21823;DHT22;11074;48.596;9.238;2023-01-15T03:31:01;11.40;99.90
21823;DHT22;11074;48.596;9.238;2023-01-15T03:33:29;11.30;99.90
21823;DHT22;11074;48.596;9.238;2023-01-15T03:35:59;11.30;99.90
21823;DHT22;11074;48.596;9.238;2023-01-15T03:38:31;11.30;99.90
21823;DHT22;11074;48.596;9.238;2023-01-15T03:55:48;11.30;99.90
21823;DHT22;11074;48.596;9.238;2023-01-15T04:00:52;11.20;99.90
21823;DHT22;11074;48.596;9.238;2023-01-15T04:03:23;11.20;99.90
21823;DHT22;11074;48.596;9.238;2023-01-15T04:05:54;11.20;99.90
21823;DHT22;11074;48.596;9.238;2023-01-15T04:08:25;11.20;99.90
21823;DHT22;11074;48.596;9.238;2023-01-15T04:10:58;11.10;99.90
21823;DHT22;11074;48.596;9.238;2023-01-15T04:13:26;11.10;99.90
21823;DHT22;11074;48.596;9.238;2023-01-15T04:15:52;11.10;99.90
21823;DHT22;11074;48.596;9.238;2023-01-15T04:18:19;11.10;99.90
21823;DHT22;11074;48.596;9.238;2023-01-15T04:20:45;11.10;99.90
21823;DHT22;11074;48.596;9.238;2023-01-15T04:23:12;11.10;99.90
21823;DHT22;11074;48.596;9.238;2023-01-15T04:25:39;11.00;99.90
21823;DHT22;11074;48.596;9.238;2023-01-15T04:28:06;11.00;99.90
21823;DHT22;11074;48.596;9.238;2023-01-15T04:30:33;11.00;99.90
21823;DHT22;11074;48.596;9.238;2023-01-15T04:32:59;11.00;99.90
21823;DHT22;11074;48.596;9.238;2023-01-15T04:35:25;11.00;99.90
21823;DHT22;11074;48.596;9.238;2023-01-15T04:37:58;11.00;99.90
21823;DHT22;11074;48.596;9.238;2023-01-15T04:40:24;11.00;99.90
21823;DHT22;11074;48.596;9.238;2023-01-15T04:43:10;11.00;99.90
21823;DHT22;11074;48.596;9.238;2023-01-15T04:45:56;11.00;99.90
21823;DHT22;11074;48.596;9.238;2023-01-15T04:48:22;11.00;99.90
21823;DHT22;11074;48.596;9.238;2023-01-15T04:50:48;11.00;99.90
21823;DHT22;11074;48.596;9.238;2023-01-15T04:53:14;11.10;99.90
21823;DHT22;11074;48.596;9.238;2023-01-15T04:55:39;11.00;99.90
21823;DHT22;11074;48.596;9.238;2023-01-15T04:58:05;11.10;99.90
21823;DHT22;11074;48.596;9.238;2023-01-15T05:00:31;11.10;99.90
21823;DHT22;11074;48.596;9.238;2023-01-15T05:02:57;11.10;99.90
21823;DHT22;11074;48.596;9.238;2023-01-15T05:05:23;11.10;99.90
21823;DHT22;11074;48.596;9.238;2023-01-15T05:07:48;11.10;99.90
21823;DHT22;11074;48.596;9.238;2023-01-15T05:10:14;11.20;99.90
21823;DHT22;11074;48.596;9.238;2023-01-15T05:12:40;11.20;99.90
21823;DHT22;11074;48.596;9.238;2023-01-15T05:15:06;11.20;99.90
21823;DHT22;11074;48.596;9.238;2023-01-15T05:17:32;11.20;99.90
21823;DHT22;11074;48.596;9.238;2023-01-15T05:19:58;11.20;99.90
21823;DHT22;11074;48.596;9.238;2023-01-15T05:22:24;11.30;99.90
21823;DHT22;11074;48.596;9.238;2023-01-15T05:24:51;11.30;99.90
21823;DHT22;11074;48.596;9.238;2023-01-15T05:27:17;11.30;99.90
21823;DHT22;11074;48.596;9.238;2023-01-15T05:29:43;11.30;99.90
21823;DHT22;11074;48.596;9.238;2023-01-15T05:32:08;11.30;99.90
21823;DHT22;11074;48.596;9.238;2023-01-15T05:34:35;11.30;99.90
21823;DHT22;11074;48.596;9.238;2023-01-15T05:37:00;11.30;99.90
21823;DHT22;11074;48.596;9.238;2023-01-15T05:39:26;11.30;99.90
21823;DHT22;11074;48.596;9.238;2023-01-15T05:41:52;11.30;99.90
21823;DHT22;11074;48.596;9.238;2023-01-15T05:44:26;11.30;99.90
21823;DHT22;11074;48.596;9.238;2023-01-15T05:46:58;11.30;99.90
21823;DHT22;11074;48.596;9.238;2023-01-15T05:49:30;11.30;99.90
21823;DHT22;11074;48.596;9.238;2023-01-15T05:51:57;11.30;99.90
21823;DHT22;11074;48.596;9.238;2023-01-15T05:54:27;11.30;99.90
21823;DHT22;11074;48.596;9.238;2023-01-15T05:56:55;11.30;99.90
21823;DHT22;11074;48.596;9.238;2023-01-15T05:59:26;11.20;99.90
21823;DHT22;11074;48.596;9.238;2023-01-15T06:01:54;11.20;99.90
21823;DHT22;11074;48.596;9.238;2023-01-15T06:04:21;11.20;99.90
21823;DHT22;11074;48.596;9.238;2023-01-15T06:06:50;11.20;99.90
21823;DHT22;11074;48.596;9.238;2023-01-15T06:09:17;11.10;99.90
21823;DHT22;11074;48.596;9.238;2023-01-15T06:11:44;11.10;99.90
21823;DHT22;11074;48.596;9.238;2023-01-15T06:14:12;11.00;99.90
21823;DHT22;11074;48.596;9.238;2023-01-15T06:16:40;10.80;99.90
21823;DHT22;11074;48.596;9.238;2023-01-15T06:19:07;10.70;99.90
21823;DHT22;11074;48.596;9.238;2023-01-15T06:21:37;10.50;99.90
21823;DHT22;11074;48.596;9.238;2023-01-15T06:24:04;10.30;99.90
21823;DHT22;11074;48.596;9.238;2023-01-15T06:26:30;10.10;99.90
21823;DHT22;11074;48.596;9.238;2023-01-15T06:28:56;9.90;99.90
21823;DHT22;11074;48.596;9.238;2023-01-15T06:31:23;9.70;99.90
21823;DHT22;11074;48.596;9.238;2023-01-15T06:33:51;9.60;99.90
21823;DHT22;11074;48.596;9.238;2023-01-15T06:36:19;9.60;99.90
21823;DHT22;11074;48.596;9.238;2023-01-15T06:38:46;9.50;99.90
21823;DHT22;11074;48.596;9.238;2023-01-15T06:41:15;9.50;99.90
21823;DHT22;11074;48.596;9.238;2023-01-15T06:44:02;9.40;99.90
21823;DHT22;11074;48.596;9.238;2023-01-15T06:46:47;9.30;99.90
21823;DHT22;11074;48.596;9.238;2023-01-15T06:49:33;9.30;99.90
21823;DHT22;11074;48.596;9.238;2023-01-15T06:52:02;9.20;99.90
21823;DHT22;11074;48.596;9.238;2023-01-15T06:54:28;9.20;99.90
21823;DHT22;11074;48.596;9.238;2023-01-15T06:56:54;9.20;99.90
21823;DHT22;11074;48.596;9.238;2023-01-15T06:59:20;9.20;99.90
21823;DHT22;11074;48.596;9.238;2023-01-15T07:01:46;9.20;99.90
21823;DHT22;11074;48.596;9.238;2023-01-15T07:04:13;9.20;99.90
21823;DHT22;11074;48.596;9.238;2023-01-15T07:06:39;9.20;99.90
21823;DHT22;11074;48.596;9.238;2023-01-15T07:09:05;9.10;99.90
21823;DHT22;11074;48.596;9.238;2023-01-15T07:11:31;9.00;99.90
21823;DHT22;11074;48.596;9.238;2023-01-15T07:13:56;8.90;99.90
21823;DHT22;11074;48.596;9.238;2023-01-15T07:16:32;9.10;99.90
21823;DHT22;11074;48.596;9.238;2023-01-15T07:19:01;9.10;99.90
21823;DHT22;11074;48.596;9.238;2023-01-15T07:21:28;9.00;99.90
21823;DHT22;11074;48.596;9.238;2023-01-15T07:23:57;8.90;99.90
21823;DHT22;11074;48.596;9.238;2023-01-15T07:26:23;8.90;99.90
21823;DHT22;11074;48.596;9.238;2023-01-15T07:28:49;8.90;99.90
21823;DHT22;11074;48.596;9.238;2023-01-15T07:31:14;8.90;99.90
21823;DHT22;11074;48.596;9.238;2023-01-15T07:33:40;8.70;99.90
21823;DHT22;11074;48.596;9.238;2023-01-15T07:36:06;8.60;99.90
21823;DHT22;11074;48.596;9.238;2023-01-15T07:38:32;8.60;99.90
21823;DHT22;11074;48.596;9.238;2023-01-15T07:40:59;8.50;99.90
21823;DHT22;11074;48.596;9.238;2023-01-15T07:43:44;8.60;99.90
21823;DHT22;11074;48.596;9.238;2023-01-15T07:46:28;8.70;99.90
21823;DHT22;11074;48.596;9.238;2023-01-15T07:49:14;8.80;99.90
21823;DHT22;11074;48.596;9.238;2023-01-15T07:51:58;8.80;99.90
21823;DHT22;11074;48.596;9.238;2023-01-15T07:54:24;8.90;99.90
21823;DHT22;11074;48.596;9.238;2023-01-15T07:56:51;8.80;99.90
21823;DHT22;11074;48.596;9.238;2023-01-15T07:59:18;8.90;99.90
21823;DHT22;11074;48.596;9.238;2023-01-15T08:01:44;8.90;99.90
21823;DHT22;11074;48.596;9.238;2023-01-15T08:04:10;8.90;99.90
21823;DHT22;11074;48.596;9.238;2023-01-15T08:06:36;9.00;99.90
21823;DHT22;11074;48.596;9.238;2023-01-15T08:09:03;8.90;99.90
21823;DHT22;11074;48.596;9.238;2023-01-15T08:11:31;8.90;99.90
21823;DHT22;11074;48.596;9.238;2023-01-15T08:14:16;8.90;99.90
21823;DHT22;11074;48.596;9.238;2023-01-15T08:17:01;8.90;99.90
21823;DHT22;11074;48.596;9.238;2023-01-15T08:19:26;9.00;99.90
21823;DHT22;11074;48.596;9.238;2023-01-15T08:21:57;9.00;99.90
21823;DHT22;11074;48.596;9.238;2023-01-15T08:24:25;9.00;99.90
21823;DHT22;11074;48.596;9.238;2023-01-15T08:26:52;9.00;99.90
21823;DHT22;11074;48.596;9.238;2023-01-15T08:29:19;9.00;99.90
21823;DHT22;11074;48.596;9.238;2023-01-15T08:31:45;9.00;99.90
21823;DHT22;11074;48.596;9.238;2023-01-15T08:34:11;9.00;99.90
21823;DHT22;11074;48.596;9.238;2023-01-15T08:36:36;9.00;99.90
21823;DHT22;11074;48.596;9.238;2023-01-15T08:39:03;9.00;99.90
21823;DHT22;11074;48.596;9.238;2023-01-15T08:41:30;9.00;99.90
21823;DHT22;11074;48.596;9.238;2023-01-15T08:43:56;9.00;99.90
21823;DHT22;11074;48.596;9.238;2023-01-15T08:46:22;9.00;99.90
21823;DHT22;11074;48.596;9.238;2023-01-15T08:48:47;9.00;99.90
21823;DHT22;11074;48.596;9.238;2023-01-15T08:51:14;9.00;99.90
21823;DHT22;11074;48.596;9.238;2023-01-15T08:53:40;8.90;99.90
21823;DHT22;11074;48.596;9.238;2023-01-15T08:56:16;9.00;99.90
21823;DHT22;11074;48.596;9.238;2023-01-15T08:58:44;8.90;99.90
21823;DHT22;11074;48.596;9.238;2023-01-15T09:01:11;8.90;99.90
21823;DHT22;11074;48.596;9.238;2023-01-15T09:03:40;8.90;99.90
21823;DHT22;11074;48.596;9.238;2023-01-15T09:06:08;8.90;99.90
21823;DHT22;11074;48.596;9.238;2023-01-15T09:08:36;8.90;99.90
21823;DHT22;11074;48.596;9.238;2023-01-15T09:11:04;8.90;99.90
21823;DHT22;11074;48.596;9.238;2023-01-15T09:13:31;8.80;99.90
21823;DHT22;11074;48.596;9.238;2023-01-15T09:16:02;8.80;99.90
21823;DHT22;11074;48.596;9.238;2023-01-15T09:18:29;8.70;99.90
21823;DHT22;11074;48.596;9.238;2023-01-15T09:20:55;8.70;99.90
21823;DHT22;11074;48.596;9.238;2023-01-15T09:23:21;8.80;99.90
21823;DHT22;11074;48.596;9.238;2023-01-15T09:25:54;8.70;99.90
21823;DHT22;11074;48.596;9.238;2023-01-15T09:28:22;8.70;99.90
21823;DHT22;11074;48.596;9.238;2023-01-15T09:30:48;8.70;99.90
21823;DHT22;11074;48.596;9.238;2023-01-15T09:33:14;8.70;99.90
21823;DHT22;11074;48.596;9.238;2023-01-15T09:35:41;8.70;99.90
21823;DHT22;11074;48.596;9.238;2023-01-15T09:38:12;8.80;99.90
21823;DHT22;11074;48.596;9.238;2023-01-15T09:40:50;8.70;99.90
21823;DHT22;11074;48.596;9.238;2023-01-15T09:43:49;8.70;99.90
21823;DHT22;11074;48.596;9.238;2023-01-15T09:46:54;8.70;99.90
21823;DHT22;11074;48.596;9.238;2023-01-15T09:55:23;8.70;99.90
21823;DHT22;11074;48.596;9.238;2023-01-15T09:57:57;8.60;99.90
21823;DHT22;11074;48.596;9.238;2023-01-15T10:00:32;8.50;99.90
21823;DHT22;11074;48.596;9.238;2023-01-15T10:03:29;8.40;99.90
21823;DHT22;11074;48.596;9.238;2023-01-15T10:09:00;8.40;99.90
21823;DHT22;11074;48.596;9.238;2023-01-15T10:11:33;8.40;99.90
21823;DHT22;11074;48.596;9.238;2023-01-15T10:15:05;8.40;99.90
21823;DHT22;11074;48.596;9.238;2023-01-15T10:17:28;8.50;99.90
21823;DHT22;11074;48.596;9.238;2023-01-15T10:20:15;8.50;99.90
21823;DHT22;11074;48.596;9.238;2023-01-15T10:25:50;8.40;99.90
21823;DHT22;11074;48.596;9.238;2023-01-15T10:28:29;8.40;99.90
21823;DHT22;11074;48.596;9.238;2023-01-15T10:31:07;8.40;99.90
21823;DHT22;11074;48.596;9.238;2023-01-15T10:36:54;8.30;99.90
21823;DHT22;11074;48.596;9.238;2023-01-15T10:39:49;8.30;99.90
21823;DHT22;11074;48.596;9.238;2023-01-15T10:45:56;8.30;99.90
21823;DHT22;11074;48.596;9.238;2023-01-15T10:48:38;8.20;99.90
21823;DHT22;11074;48.596;9.238;2023-01-15T10:51:21;8.20;99.90
21823;DHT22;11074;48.596;9.238;2023-01-15T10:54:00;8.10;99.90
21823;DHT22;11074;48.596;9.238;2023-01-15T10:56:54;8.10;99.90
21823;DHT22;11074;48.596;9.238;2023-01-15T10:59:41;8.00;99.90
21823;DHT22;11074;48.596;9.238;2023-01-15T11:02:36;8.00;99.90
21823;DHT22;11074;48.596;9.238;2023-01-15T11:05:05;8.00;99.90
21823;DHT22;11074;48.596;9.238;2023-01-15T11:07:42;8.00;99.90
21823;DHT22;11074;48.596;9.238;2023-01-15T11:10:13;8.00;99.90
21823;DHT22;11074;48.596;9.238;2023-01-15T11:12:54;7.90;99.90
21823;DHT22;11074;48.596;9.238;2023-01-15T11:15:45;7.90;99.90
21823;DHT22;11074;48.596;9.238;2023-01-15T11:18:35;7.90;99.90
21823;DHT22;11074;48.596;9.238;2023-01-15T11:21:30;7.90;99.90
21823;DHT22;11074;48.596;9.238;2023-01-15T11:23:57;7.90;99.90
21823;DHT22;11074;48.596;9.238;2023-01-15T11:26:31;7.90;99.90
21823;DHT22;11074;48.596;9.238;2023-01-15T11:28:58;7.90;99.90
21823;DHT22;11074;48.596;9.238;2023-01-15T11:31:37;7.90;99.90
21823;DHT22;11074;48.596;9.238;2023-01-15T11:34:14;7.90;99.90
21823;DHT22;11074;48.596;9.238;2023-01-15T11:36:46;7.80;99.90
21823;DHT22;11074;48.596;9.238;2023-01-15T11:39:24;7.80;99.90
21823;DHT22;11074;48.596;9.238;2023-01-15T11:42:01;7.80;99.90
21823;DHT22;11074;48.596;9.238;2023-01-15T11:44:56;7.80;99.90
21823;DHT22;11074;48.596;9.238;2023-01-15T11:47:54;7.80;99.90
21823;DHT22;11074;48.596;9.238;2023-01-15T11:50:51;7.80;99.90
21823;DHT22;11074;48.596;9.238;2023-01-15T11:53:28;7.40;99.90
21823;DHT22;11074;48.596;9.238;2023-01-15T11:56:00;7.00;99.90
21823;DHT22;11074;48.596;9.238;2023-01-15T11:58:48;6.90;99.90
21823;DHT22;11074;48.596;9.238;2023-01-15T12:01:27;6.90;99.90
21823;DHT22;11074;48.596;9.238;2023-01-15T12:07:04;7.00;99.90
21823;DHT22;11074;48.596;9.238;2023-01-15T12:15:54;7.20;99.90
21823;DHT22;11074;48.596;9.238;2023-01-15T12:21:39;7.20;99.90
21823;DHT22;11074;48.596;9.238;2023-01-15T12:30:36;7.20;99.90
21823;DHT22;11074;48.596;9.238;2023-01-15T12:33:51;7.20;99.90
21823;DHT22;11074;48.596;9.238;2023-01-15T12:36:23;7.10;99.90
21823;DHT22;11074;48.596;9.238;2023-01-15T12:39:03;7.00;99.90
21823;DHT22;11074;48.596;9.238;2023-01-15T12:41:40;7.00;99.90
21823;DHT22;11074;48.596;9.238;2023-01-15T12:47:42;7.10;99.90
21823;DHT22;11074;48.596;9.238;2023-01-15T12:50:40;7.10;99.90
21823;DHT22;11074;48.596;9.238;2023-01-15T12:53:28;7.10;99.90
21823;DHT22;11074;48.596;9.238;2023-01-15T12:56:13;6.90;99.90
21823;DHT22;11074;48.596;9.238;2023-01-15T12:59:09;6.90;99.90
21823;DHT22;11074;48.596;9.238;2023-01-15T13:01:55;7.00;99.90
21823;DHT22;11074;48.596;9.238;2023-01-15T13:04:41;6.90;99.90
21823;DHT22;11074;48.596;9.238;2023-01-15T13:07:35;6.90;99.90
21823;DHT22;11074;48.596;9.238;2023-01-15T13:10:16;6.90;99.90
21823;DHT22;11074;48.596;9.238;2023-01-15T13:12:44;6.80;99.90
21823;DHT22;11074;48.596;9.238;2023-01-15T13:15:15;6.80;99.90
21823;DHT22;11074;48.596;9.238;2023-01-15T13:20:51;6.80;99.90
21823;DHT22;11074;48.596;9.238;2023-01-15T13:26:12;6.90;99.90
21823;DHT22;11074;48.596;9.238;2023-01-15T13:28:52;6.90;99.90
21823;DHT22;11074;48.596;9.238;2023-01-15T13:32:02;6.90;99.90
21823;DHT22;11074;48.596;9.238;2023-01-15T13:37:51;6.90;99.90
21823;DHT22;11074;48.596;9.238;2023-01-15T13:43:00;6.80;99.90
21823;DHT22;11074;48.596;9.238;2023-01-15T13:45:38;6.90;99.90
21823;DHT22;11074;48.596;9.238;2023-01-15T13:48:24;6.90;99.90
21823;DHT22;11074;48.596;9.238;2023-01-15T13:50:57;6.80;99.90
21823;DHT22;11074;48.596;9.238;2023-01-15T13:53:37;6.80;99.90
21823;DHT22;11074;48.596;9.238;2023-01-15T13:56:11;6.80;99.90
21823;DHT22;11074;48.596;9.238;2023-01-15T13:59:01;6.80;99.90
21823;DHT22;11074;48.596;9.238;2023-01-15T14:03:58;6.80;99.90
21823;DHT22;11074;48.596;9.238;2023-01-15T14:06:50;6.80;99.90
21823;DHT22;11074;48.596;9.238;2023-01-15T14:26:43;11.40;99.90
21823;DHT22;11074;48.596;9.238;2023-01-15T14:29:44;12.30;99.90
21823;DHT22;11074;48.596;9.238;2023-01-15T14:35:25;13.70;99.90
21823;DHT22;11074;48.596;9.238;2023-01-15T14:38:16;14.00;99.90
21823;DHT22;11074;48.596;9.238;2023-01-15T14:40:56;14.20;99.90
21823;DHT22;11074;48.596;9.238;2023-01-15T14:43:28;13.90;99.90
21823;DHT22;11074;48.596;9.238;2023-01-15T14:46:30;13.40;99.90
21823;DHT22;11074;48.596;9.238;2023-01-15T14:49:01;12.70;99.90
21823;DHT22;11074;48.596;9.238;2023-01-15T14:51:46;11.50;99.90
21823;DHT22;11074;48.596;9.238;2023-01-15T14:54:17;10.20;99.90
21823;DHT22;11074;48.596;9.238;2023-01-15T14:56:49;9.20;99.90
21823;DHT22;11074;48.596;9.238;2023-01-15T14:59:23;8.50;99.90
21823;DHT22;11074;48.596;9.238;2023-01-15T15:02:07;8.10;99.90
21823;DHT22;11074;48.596;9.238;2023-01-15T15:04:48;7.80;99.90
21823;DHT22;11074;48.596;9.238;2023-01-15T15:07:22;7.60;99.90
21823;DHT22;11074;48.596;9.238;2023-01-15T15:09:58;7.40;99.90
21823;DHT22;11074;48.596;9.238;2023-01-15T15:12:41;7.30;99.90
21823;DHT22;11074;48.596;9.238;2023-01-15T15:21:06;7.00;99.90
21823;DHT22;11074;48.596;9.238;2023-01-15T15:26:43;6.90;99.90
21823;DHT22;11074;48.596;9.238;2023-01-15T15:31:36;6.80;99.90
21823;DHT22;11074;48.596;9.238;2023-01-15T15:34:06;6.80;99.90
21823;DHT22;11074;48.596;9.238;2023-01-15T15:36:44;6.80;99.90
21823;DHT22;11074;48.596;9.238;2023-01-15T15:39:19;6.80;99.90
21823;DHT22;11074;48.596;9.238;2023-01-15T15:41:54;6.70;99.90
21823;DHT22;11074;48.596;9.238;2023-01-15T15:44:54;6.70;99.90
21823;DHT22;11074;48.596;9.238;2023-01-15T15:47:43;6.70;99.90
21823;DHT22;11074;48.596;9.238;2023-01-15T15:50:33;6.60;99.90
21823;DHT22;11074;48.596;9.238;2023-01-15T15:53:00;6.50;99.90
21823;DHT22;11074;48.596;9.238;2023-01-15T15:55:39;6.50;99.90
21823;DHT22;11074;48.596;9.238;2023-01-15T15:58:45;6.50;99.90
21823;DHT22;11074;48.596;9.238;2023-01-15T16:01:04;6.50;99.90
21823;DHT22;11074;48.596;9.238;2023-01-15T16:03:34;6.40;99.90
21823;DHT22;11074;48.596;9.238;2023-01-15T16:06:05;6.40;99.90
21823;DHT22;11074;48.596;9.238;2023-01-15T16:08:33;6.50;99.90
21823;DHT22;11074;48.596;9.238;2023-01-15T16:11:11;6.40;99.90
21823;DHT22;11074;48.596;9.238;2023-01-15T16:13:44;6.40;99.90
21823;DHT22;11074;48.596;9.238;2023-01-15T16:16:13;6.40;99.90
21823;DHT22;11074;48.596;9.238;2023-01-15T16:18:44;6.40;99.90
21823;DHT22;11074;48.596;9.238;2023-01-15T16:21:21;6.40;99.90
21823;DHT22;11074;48.596;9.238;2023-01-15T16:24:00;6.50;99.90
21823;DHT22;11074;48.596;9.238;2023-01-15T16:29:16;6.50;99.90
21823;DHT22;11074;48.596;9.238;2023-01-15T16:31:45;6.50;99.90
21823;DHT22;11074;48.596;9.238;2023-01-15T16:34:18;6.40;99.90
21823;DHT22;11074;48.596;9.238;2023-01-15T16:36:46;6.40;99.90
21823;DHT22;11074;48.596;9.238;2023-01-15T16:39:38;6.40;99.90
21823;DHT22;11074;48.596;9.238;2023-01-15T16:42:25;6.50;99.90
21823;DHT22;11074;48.596;9.238;2023-01-15T16:45:02;6.50;99.90
21823;DHT22;11074;48.596;9.238;2023-01-15T16:48:07;6.50;99.90
21823;DHT22;11074;48.596;9.238;2023-01-15T16:50:50;6.40;99.90
21823;DHT22;11074;48.596;9.238;2023-01-15T16:56:00;6.20;99.90
21823;DHT22;11074;48.596;9.238;2023-01-15T16:58:34;6.20;99.90
21823;DHT22;11074;48.596;9.238;2023-01-15T17:03:49;6.10;99.90
21823;DHT22;11074;48.596;9.238;2023-01-15T17:06:20;6.00;99.90
21823;DHT22;11074;48.596;9.238;2023-01-15T17:08:49;6.00;99.90
21823;DHT22;11074;48.596;9.238;2023-01-15T17:11:25;6.00;99.90
21823;DHT22;11074;48.596;9.238;2023-01-15T17:14:20;6.00;99.90
21823;DHT22;11074;48.596;9.238;2023-01-15T17:17:20;6.00;99.90
21823;DHT22;11074;48.596;9.238;2023-01-15T17:19:53;6.00;99.90
21823;DHT22;11074;48.596;9.238;2023-01-15T17:22:24;5.80;99.90
21823;DHT22;11074;48.596;9.238;2023-01-15T17:24:57;5.80;99.90
21823;DHT22;11074;48.596;9.238;2023-01-15T17:27:26;5.80;99.90
21823;DHT22;11074;48.596;9.238;2023-01-15T17:29:53;5.80;99.90
21823;DHT22;11074;48.596;9.238;2023-01-15T17:32:27;5.70;99.90
21823;DHT22;11074;48.596;9.238;2023-01-15T17:34:55;5.70;99.90
21823;DHT22;11074;48.596;9.238;2023-01-15T17:37:22;5.70;99.90
21823;DHT22;11074;48.596;9.238;2023-01-15T17:39:48;5.70;99.90
21823;DHT22;11074;48.596;9.238;2023-01-15T17:42:16;5.60;99.90
21823;DHT22;11074;48.596;9.238;2023-01-15T17:44:44;5.60;99.90
21823;DHT22;11074;48.596;9.238;2023-01-15T17:47:10;5.50;99.90
21823;DHT22;11074;48.596;9.238;2023-01-15T17:49:37;5.50;99.90
21823;DHT22;11074;48.596;9.238;2023-01-15T17:52:07;5.60;99.90
21823;DHT22;11074;48.596;9.238;2023-01-15T17:54:42;5.60;99.90
21823;DHT22;11074;48.596;9.238;2023-01-15T17:57:26;5.60;99.90
21823;DHT22;11074;48.596;9.238;2023-01-15T18:00:11;5.60;99.90
21823;DHT22;11074;48.596;9.238;2023-01-15T18:02:55;5.50;99.90
21823;DHT22;11074;48.596;9.238;2023-01-15T18:05:41;5.50;99.90
21823;DHT22;11074;48.596;9.238;2023-01-15T18:08:09;5.50;99.90
21823;DHT22;11074;48.596;9.238;2023-01-15T18:10:37;5.50;99.90
21823;DHT22;11074;48.596;9.238;2023-01-15T18:13:03;5.70;99.90
21823;DHT22;11074;48.596;9.238;2023-01-15T18:15:32;5.60;99.90
21823;DHT22;11074;48.596;9.238;2023-01-15T18:17:58;5.60;99.90